sensor_id;sensor_type;location;lat;lon;timestamp;pressure;altitude;pressure_sealevel;temperature;humidity
74403;BME280;62837;51.082;13.744;2023-02-01T00:00:02;100215.79;;;4.77;73.31
74403;BME280;62837;51.082;13.744;2023-02-01T00:02:35;100224.23;;;4.76;73.36
74403;BME280;62837;51.082;13.744;2023-02-01T00:05:10;100223.56;;;4.74;73.19
74403;BME280;62837;51.082;13.744;2023-02-01T00:07:41;100223.61;;;4.74;73.30
74403;BME280;62837;51.082;13.744;2023-02-01T00:10:13;100226.73;;;4.73;73.19
74403;BME280;62837;51.082;13.744;2023-02-01T00:12:44;100226.59;;;4.71;73.19
74403;BME280;62837;51.082;13.744;2023-02-01T00:15:15;100232.74;;;4.70;73.44
74403;BME280;62837;51.082;13.744;2023-02-01T00:17:46;100234.38;;;4.69;73.14
74403;BME280;62837;51.082;13.744;2023-02-01T00:20:17;100230.06;;;4.70;73.25
74403;BME280;62837;51.082;13.744;2023-02-01T00:22:49;100234.59;;;4.71;73.04
74403;BME280;62837;51.082;13.744;2023-02-01T00:25:19;100232.91;;;4.71;73.25
74403;BME280;62837;51.082;13.744;2023-02-01T00:27:51;100233.48;;;4.73;73.14
74403;BME280;62837;51.082;13.744;2023-02-01T00:30:22;100233.98;;;4.73;73.25
74403;BME280;62837;51.082;13.744;2023-02-01T00:32:52;100231.21;;;4.73;73.54
74403;BME280;62837;51.082;13.744;2023-02-01T00:35:23;100233.83;;;4.75;74.34
74403;BME280;62837;51.082;13.744;2023-02-01T00:37:54;100235.69;;;4.83;75.42
74403;BME280;62837;51.082;13.744;2023-02-01T00:40:27;100234.40;;;4.92;75.02
74403;BME280;62837;51.082;13.744;2023-02-01T00:42:58;100238.95;;;4.98;75.11
74403;BME280;62837;51.082;13.744;2023-02-01T00:45:29;100233.11;;;5.05;74.65
74403;BME280;62837;51.082;13.744;2023-02-01T00:48:00;100235.92;;;5.10;74.15
74403;BME280;62837;51.082;13.744;2023-02-01T00:50:31;100230.29;;;5.15;74.22
74403;BME280;62837;51.082;13.744;2023-02-01T00:53:01;100232.92;;;5.20;74.86
74403;BME280;62837;51.082;13.744;2023-02-01T00:55:32;100232.06;;;5.25;74.23
74403;BME280;62837;51.082;13.744;2023-02-01T00:58:04;100236.35;;;5.28;73.83
74403;BME280;62837;51.082;13.744;2023-02-01T01:00:35;100239.31;;;5.29;73.31
74403;BME280;62837;51.082;13.744;2023-02-01T01:03:06;100241.77;;;5.29;73.31
74403;BME280;62837;51.082;13.744;2023-02-01T01:05:47;100237.11;;;5.30;73.34
74403;BME280;62837;51.082;13.744;2023-02-01T01:08:19;100232.89;;;5.33;74.40
74403;BME280;62837;51.082;13.744;2023-02-01T01:10:49;100235.88;;;5.34;73.29
74403;BME280;62837;51.082;13.744;2023-02-01T01:13:21;100235.11;;;5.36;73.84
74403;BME280;62837;51.082;13.744;2023-02-01T01:15:52;100232.56;;;5.35;72.82
74403;BME280;62837;51.082;13.744;2023-02-01T01:18:23;100233.06;;;5.35;72.39
74403;BME280;62837;51.082;13.744;2023-02-01T01:20:53;100228.98;;;5.33;71.90
74403;BME280;62837;51.082;13.744;2023-02-01T01:23:24;100230.65;;;5.31;72.25
74403;BME280;62837;51.082;13.744;2023-02-01T01:25:55;100227.88;;;5.31;71.80
74403;BME280;62837;51.082;13.744;2023-02-01T01:28:26;100233.52;;;5.28;71.97
74403;BME280;62837;51.082;13.744;2023-02-01T01:30:57;100230.48;;;5.29;71.72
74403;BME280;62837;51.082;13.744;2023-02-01T01:33:28;100229.95;;;5.29;71.87
74403;BME280;62837;51.082;13.744;2023-02-01T01:35:59;100227.69;;;5.32;72.66
74403;BME280;62837;51.082;13.744;2023-02-01T01:38:30;100226.07;;;5.34;71.57
74403;BME280;62837;51.082;13.744;2023-02-01T01:41:01;100226.27;;;5.36;71.63
74403;BME280;62837;51.082;13.744;2023-02-01T01:46:32;100224.57;;;5.37;70.31
74403;BME280;62837;51.082;13.744;2023-02-01T01:49:07;100219.95;;;5.34;70.01
74403;BME280;62837;51.082;13.744;2023-02-01T01:51:42;100220.80;;;5.33;70.09
74403;BME280;62837;51.082;13.744;2023-02-01T01:54:18;100224.48;;;5.33;70.17
74403;BME280;62837;51.082;13.744;2023-02-01T01:56:53;100223.13;;;5.32;70.37
74403;BME280;62837;51.082;13.744;2023-02-01T01:59:27;100217.78;;;5.33;70.21
74403;BME280;62837;51.082;13.744;2023-02-01T02:01:58;100215.40;;;5.35;70.53
74403;BME280;62837;51.082;13.744;2023-02-01T02:04:29;100220.19;;;5.36;69.83
74403;BME280;62837;51.082;13.744;2023-02-01T02:07:04;100222.54;;;5.38;70.61
74403;BME280;62837;51.082;13.744;2023-02-01T02:09:35;100215.80;;;5.36;69.58
74403;BME280;62837;51.082;13.744;2023-02-01T02:12:08;100221.55;;;5.39;70.22
74403;BME280;62837;51.082;13.744;2023-02-01T02:14:39;100223.40;;;5.40;70.70
74403;BME280;62837;51.082;13.744;2023-02-01T02:17:23;100216.08;;;5.45;70.61
74403;BME280;62837;51.082;13.744;2023-02-01T02:26:25;100208.85;;;5.52;70.68
74403;BME280;62837;51.082;13.744;2023-02-01T02:35:26;100204.77;;;5.62;69.26
74403;BME280;62837;51.082;13.744;2023-02-01T02:38:05;100196.52;;;5.60;69.95
74403;BME280;62837;51.082;13.744;2023-02-01T02:40:48;100194.80;;;5.61;69.01
74403;BME280;62837;51.082;13.744;2023-02-01T02:43:23;100187.90;;;5.56;68.51
74403;BME280;62837;51.082;13.744;2023-02-01T02:46:19;100180.73;;;5.47;68.01
74403;BME280;62837;51.082;13.744;2023-02-01T02:49:12;100178.30;;;5.42;68.36
74403;BME280;62837;51.082;13.744;2023-02-01T02:51:48;100175.77;;;5.37;68.70
74403;BME280;62837;51.082;13.744;2023-02-01T02:54:43;100181.54;;;5.33;68.39
74403;BME280;62837;51.082;13.744;2023-02-01T02:57:25;100185.82;;;5.30;68.73
74403;BME280;62837;51.082;13.744;2023-02-01T03:00:18;100181.40;;;5.29;68.55
74403;BME280;62837;51.082;13.744;2023-02-01T03:03:08;100188.45;;;5.25;69.08
74403;BME280;62837;51.082;13.744;2023-02-01T03:05:57;100186.57;;;5.24;68.51
74403;BME280;62837;51.082;13.744;2023-02-01T03:08:29;100189.67;;;5.22;68.77
74403;BME280;62837;51.082;13.744;2023-02-01T03:11:04;100191.48;;;5.20;68.74
74403;BME280;62837;51.082;13.744;2023-02-01T03:13:41;100191.86;;;5.20;68.76
74403;BME280;62837;51.082;13.744;2023-02-01T03:16:20;100191.42;;;5.22;68.90
74403;BME280;62837;51.082;13.744;2023-02-01T03:18:59;100193.02;;;5.21;68.32
74403;BME280;62837;51.082;13.744;2023-02-01T03:21:35;100199.63;;;5.17;68.25
74403;BME280;62837;51.082;13.744;2023-02-01T03:24:14;100196.95;;;5.14;68.83
74403;BME280;62837;51.082;13.744;2023-02-01T03:26:51;100199.60;;;5.12;68.44
74403;BME280;62837;51.082;13.744;2023-02-01T03:29:27;100198.02;;;5.11;68.44
74403;BME280;62837;51.082;13.744;2023-02-01T03:32:00;100197.02;;;5.09;68.67
74403;BME280;62837;51.082;13.744;2023-02-01T03:34:31;100194.74;;;5.11;69.04
74403;BME280;62837;51.082;13.744;2023-02-01T03:37:04;100190.83;;;5.13;68.86
74403;BME280;62837;51.082;13.744;2023-02-01T03:39:39;100176.89;;;5.13;68.67
74403;BME280;62837;51.082;13.744;2023-02-01T03:42:14;100183.20;;;5.13;68.28
74403;BME280;62837;51.082;13.744;2023-02-01T03:44:51;100185.02;;;5.14;68.89
74403;BME280;62837;51.082;13.744;2023-02-01T03:47:27;100187.52;;;5.15;68.60
74403;BME280;62837;51.082;13.744;2023-02-01T03:50:04;100190.21;;;5.18;68.50
74403;BME280;62837;51.082;13.744;2023-02-01T03:52:39;100182.60;;;5.18;68.37
74403;BME280;62837;51.082;13.744;2023-02-01T03:55:14;100181.21;;;5.17;68.16
74403;BME280;62837;51.082;13.744;2023-02-01T03:57:48;100175.31;;;5.17;68.29
74403;BME280;62837;51.082;13.744;2023-02-01T04:00:24;100173.30;;;5.19;69.10
74403;BME280;62837;51.082;13.744;2023-02-01T04:02:56;100175.34;;;5.20;68.58
74403;BME280;62837;51.082;13.744;2023-02-01T04:05:27;100167.24;;;5.21;68.41
74403;BME280;62837;51.082;13.744;2023-02-01T04:08:04;100165.91;;;5.22;68.67
74403;BME280;62837;51.082;13.744;2023-02-01T04:10:35;100152.02;;;5.23;68.04
74403;BME280;62837;51.082;13.744;2023-02-01T04:13:06;100153.87;;;5.23;68.08
74403;BME280;62837;51.082;13.744;2023-02-01T04:15:37;100153.34;;;5.19;67.68
74403;BME280;62837;51.082;13.744;2023-02-01T04:18:08;100157.22;;;5.21;68.21
74403;BME280;62837;51.082;13.744;2023-02-01T04:20:38;100152.81;;;5.22;68.08
74403;BME280;62837;51.082;13.744;2023-02-01T04:23:09;100150.77;;;5.20;67.78
74403;BME280;62837;51.082;13.744;2023-02-01T04:25:40;100150.84;;;5.21;68.01
74403;BME280;62837;51.082;13.744;2023-02-01T04:28:10;100142.48;;;5.23;67.97
74403;BME280;62837;51.082;13.744;2023-02-01T04:30:41;100139.71;;;5.24;67.71
74403;BME280;62837;51.082;13.744;2023-02-01T04:33:12;100137.46;;;5.22;67.55
74403;BME280;62837;51.082;13.744;2023-02-01T04:35:44;100137.92;;;5.21;67.19
74403;BME280;62837;51.082;13.744;2023-02-01T04:38:14;100135.04;;;5.21;67.75
74403;BME280;62837;51.082;13.744;2023-02-01T04:40:48;100130.02;;;5.22;67.58
74403;BME280;62837;51.082;13.744;2023-02-01T04:43:19;100132.85;;;5.24;67.50
74403;BME280;62837;51.082;13.744;2023-02-01T04:45:50;100130.14;;;5.23;67.28
74403;BME280;62837;51.082;13.744;2023-02-01T04:48:21;100129.20;;;5.21;67.26
74403;BME280;62837;51.082;13.744;2023-02-01T04:50:53;100126.67;;;5.19;67.00
74403;BME280;62837;51.082;13.744;2023-02-01T04:53:24;100123.48;;;5.17;67.04
74403;BME280;62837;51.082;13.744;2023-02-01T04:55:55;100120.50;;;5.18;67.51
74403;BME280;62837;51.082;13.744;2023-02-01T04:58:26;100111.91;;;5.17;67.08
74403;BME280;62837;51.082;13.744;2023-02-01T05:00:57;100110.65;;;5.15;67.21
74403;BME280;62837;51.082;13.744;2023-02-01T05:03:28;100111.34;;;5.14;67.22
74403;BME280;62837;51.082;13.744;2023-02-01T05:05:59;100105.89;;;5.14;67.26
74403;BME280;62837;51.082;13.744;2023-02-01T05:08:30;100102.32;;;5.15;67.96
74403;BME280;62837;51.082;13.744;2023-02-01T05:11:01;100101.80;;;5.17;67.21
74403;BME280;62837;51.082;13.744;2023-02-01T05:13:32;100101.75;;;5.18;67.23
74403;BME280;62837;51.082;13.744;2023-02-01T05:16:18;100096.77;;;5.17;67.07
74403;BME280;62837;51.082;13.744;2023-02-01T05:18:49;100089.20;;;5.18;67.12
74403;BME280;62837;51.082;13.744;2023-02-01T05:21:20;100090.14;;;5.19;66.81
74403;BME280;62837;51.082;13.744;2023-02-01T05:23:51;100082.97;;;5.19;67.12
74403;BME280;62837;51.082;13.744;2023-02-01T05:26:40;100083.05;;;5.19;66.58
74403;BME280;62837;51.082;13.744;2023-02-01T05:29:12;100078.14;;;5.23;67.97
74403;BME280;62837;51.082;13.744;2023-02-01T05:31:43;100078.31;;;5.26;66.99
74403;BME280;62837;51.082;13.744;2023-02-01T05:34:14;100072.90;;;5.28;67.08
74403;BME280;62837;51.082;13.744;2023-02-01T05:36:45;100073.71;;;5.30;67.29
74403;BME280;62837;51.082;13.744;2023-02-01T05:39:16;100070.52;;;5.36;67.19
74403;BME280;62837;51.082;13.744;2023-02-01T05:41:46;100074.14;;;5.38;66.65
74403;BME280;62837;51.082;13.744;2023-02-01T05:44:17;100070.95;;;5.36;66.21
74403;BME280;62837;51.082;13.744;2023-02-01T05:46:48;100072.76;;;5.35;65.97
74403;BME280;62837;51.082;13.744;2023-02-01T05:49:21;100079.48;;;5.34;66.14
74403;BME280;62837;51.082;13.744;2023-02-01T05:51:52;100074.50;;;5.33;66.37
74403;BME280;62837;51.082;13.744;2023-02-01T05:54:22;100074.73;;;5.34;66.36
74403;BME280;62837;51.082;13.744;2023-02-01T05:56:53;100069.95;;;5.34;66.15
74403;BME280;62837;51.082;13.744;2023-02-01T05:59:24;100066.16;;;5.33;66.05
74403;BME280;62837;51.082;13.744;2023-02-01T06:01:55;100066.11;;;5.31;66.08
74403;BME280;62837;51.082;13.744;2023-02-01T06:04:26;100067.55;;;5.30;66.18
74403;BME280;62837;51.082;13.744;2023-02-01T06:06:57;100065.92;;;5.29;66.70
74403;BME280;62837;51.082;13.744;2023-02-01T06:09:27;100062.10;;;5.29;66.93
74403;BME280;62837;51.082;13.744;2023-02-01T06:11:58;100060.89;;;5.30;66.89
74403;BME280;62837;51.082;13.744;2023-02-01T06:14:30;100064.20;;;5.29;66.80
74403;BME280;62837;51.082;13.744;2023-02-01T06:17:01;100062.31;;;5.28;66.67
74403;BME280;62837;51.082;13.744;2023-02-01T06:19:32;100063.99;;;5.27;66.84
74403;BME280;62837;51.082;13.744;2023-02-01T06:22:03;100056.81;;;5.28;66.98
74403;BME280;62837;51.082;13.744;2023-02-01T06:24:35;100054.79;;;5.28;66.87
74403;BME280;62837;51.082;13.744;2023-02-01T06:27:06;100054.64;;;5.28;66.53
74403;BME280;62837;51.082;13.744;2023-02-01T06:29:38;100055.29;;;5.28;67.03
74403;BME280;62837;51.082;13.744;2023-02-01T06:32:09;100052.89;;;5.28;66.76
74403;BME280;62837;51.082;13.744;2023-02-01T06:34:40;100053.70;;;5.28;66.86
74403;BME280;62837;51.082;13.744;2023-02-01T06:37:11;100052.84;;;5.29;66.91
74403;BME280;62837;51.082;13.744;2023-02-01T06:39:43;100054.80;;;5.30;66.74
74403;BME280;62837;51.082;13.744;2023-02-01T06:42:14;100059.21;;;5.29;66.73
74403;BME280;62837;51.082;13.744;2023-02-01T06:44:45;100052.50;;;5.30;66.33
74403;BME280;62837;51.082;13.744;2023-02-01T06:47:21;100059.54;;;5.30;66.81
74403;BME280;62837;51.082;13.744;2023-02-01T06:49:52;100057.95;;;5.30;67.01
74403;BME280;62837;51.082;13.744;2023-02-01T06:52:22;100054.77;;;5.29;66.72
74403;BME280;62837;51.082;13.744;2023-02-01T06:54:53;100050.41;;;5.29;66.96
74403;BME280;62837;51.082;13.744;2023-02-01T06:57:25;100050.90;;;5.29;66.95
74403;BME280;62837;51.082;13.744;2023-02-01T07:00:04;100051.16;;;5.29;67.08
74403;BME280;62837;51.082;13.744;2023-02-01T07:02:35;100051.08;;;5.29;67.34
74403;BME280;62837;51.082;13.744;2023-02-01T07:05:08;100040.56;;;5.28;66.90
74403;BME280;62837;51.082;13.744;2023-02-01T07:07:39;100039.90;;;5.28;67.00
74403;BME280;62837;51.082;13.744;2023-02-01T07:10:11;100040.56;;;5.24;66.94
74403;BME280;62837;51.082;13.744;2023-02-01T07:12:42;100045.98;;;5.20;67.19
74403;BME280;62837;51.082;13.744;2023-02-01T07:15:13;100045.20;;;5.17;67.21
74403;BME280;62837;51.082;13.744;2023-02-01T07:17:44;100042.34;;;5.14;67.91
74403;BME280;62837;51.082;13.744;2023-02-01T07:20:17;100042.30;;;5.11;69.08
74403;BME280;62837;51.082;13.744;2023-02-01T07:22:48;100044.27;;;5.13;69.38
74403;BME280;62837;51.082;13.744;2023-02-01T07:25:18;100038.96;;;5.12;69.24
74403;BME280;62837;51.082;13.744;2023-02-01T07:27:49;100041.90;;;5.06;69.54
74403;BME280;62837;51.082;13.744;2023-02-01T07:30:20;100031.20;;;4.99;70.65
74403;BME280;62837;51.082;13.744;2023-02-01T07:32:52;100038.52;;;4.92;70.67
74403;BME280;62837;51.082;13.744;2023-02-01T07:35:22;100041.81;;;4.86;71.41
74403;BME280;62837;51.082;13.744;2023-02-01T07:37:53;100041.00;;;4.82;71.63
74403;BME280;62837;51.082;13.744;2023-02-01T07:40:24;100036.43;;;4.76;72.04
74403;BME280;62837;51.082;13.744;2023-02-01T07:42:58;100033.83;;;4.72;72.28
74403;BME280;62837;51.082;13.744;2023-02-01T07:45:29;100031.39;;;4.69;72.26
74403;BME280;62837;51.082;13.744;2023-02-01T07:48:00;100030.02;;;4.68;72.37
74403;BME280;62837;51.082;13.744;2023-02-01T07:50:33;100025.97;;;4.68;72.38
74403;BME280;62837;51.082;13.744;2023-02-01T07:53:03;100025.80;;;4.68;72.34
74403;BME280;62837;51.082;13.744;2023-02-01T07:55:34;100024.70;;;4.69;72.22
74403;BME280;62837;51.082;13.744;2023-02-01T07:58:08;100018.55;;;4.70;72.37
74403;BME280;62837;51.082;13.744;2023-02-01T08:00:38;100016.39;;;4.70;72.25
74403;BME280;62837;51.082;13.744;2023-02-01T08:03:29;100017.22;;;4.70;72.12
74403;BME280;62837;51.082;13.744;2023-02-01T08:05:59;100017.68;;;4.71;72.22
74403;BME280;62837;51.082;13.744;2023-02-01T08:08:30;100017.00;;;4.72;71.88
74403;BME280;62837;51.082;13.744;2023-02-01T08:11:02;100017.56;;;4.73;71.89
74403;BME280;62837;51.082;13.744;2023-02-01T08:13:34;100014.39;;;4.75;72.12
74403;BME280;62837;51.082;13.744;2023-02-01T08:16:07;100008.86;;;4.75;71.79
74403;BME280;62837;51.082;13.744;2023-02-01T08:18:39;100004.66;;;4.75;72.10
74403;BME280;62837;51.082;13.744;2023-02-01T08:21:12;100001.81;;;4.76;72.26
74403;BME280;62837;51.082;13.744;2023-02-01T08:23:44;100004.35;;;4.78;71.97
74403;BME280;62837;51.082;13.744;2023-02-01T08:26:17;100002.27;;;4.77;72.23
74403;BME280;62837;51.082;13.744;2023-02-01T08:28:51;99997.26;;;4.75;72.16
74403;BME280;62837;51.082;13.744;2023-02-01T08:31:23;99992.04;;;4.73;72.46
74403;BME280;62837;51.082;13.744;2023-02-01T08:33:56;99988.64;;;4.71;72.82
74403;BME280;62837;51.082;13.744;2023-02-01T08:36:28;99981.70;;;4.69;72.93
74403;BME280;62837;51.082;13.744;2023-02-01T08:38:59;99977.36;;;4.65;72.39
74403;BME280;62837;51.082;13.744;2023-02-01T08:41:31;99977.50;;;4.64;72.49
74403;BME280;62837;51.082;13.744;2023-02-01T08:44:02;99974.33;;;4.63;72.26
74403;BME280;62837;51.082;13.744;2023-02-01T08:46:32;99971.53;;;4.66;71.94
74403;BME280;62837;51.082;13.744;2023-02-01T08:49:03;99974.75;;;4.69;71.80
74403;BME280;62837;51.082;13.744;2023-02-01T08:51:34;99973.48;;;4.72;71.54
74403;BME280;62837;51.082;13.744;2023-02-01T08:54:05;99970.36;;;4.78;71.51
74403;BME280;62837;51.082;13.744;2023-02-01T08:56:36;99965.12;;;4.84;70.99
74403;BME280;62837;51.082;13.744;2023-02-01T08:59:06;99963.86;;;4.92;70.07
74403;BME280;62837;51.082;13.744;2023-02-01T09:01:37;99959.92;;;5.02;69.69
74403;BME280;62837;51.082;13.744;2023-02-01T09:04:08;99965.65;;;5.12;69.73
74403;BME280;62837;51.082;13.744;2023-02-01T09:06:41;99956.84;;;5.20;69.24
74403;BME280;62837;51.082;13.744;2023-02-01T09:09:12;99956.95;;;5.26;68.74
74403;BME280;62837;51.082;13.744;2023-02-01T09:11:42;99957.92;;;5.30;68.22
74403;BME280;62837;51.082;13.744;2023-02-01T09:14:13;99958.48;;;5.35;68.38
74403;BME280;62837;51.082;13.744;2023-02-01T09:16:44;99958.28;;;5.38;68.22
74403;BME280;62837;51.082;13.744;2023-02-01T09:19:15;99951.33;;;5.41;68.17
74403;BME280;62837;51.082;13.744;2023-02-01T09:21:55;99961.30;;;5.44;68.22
74403;BME280;62837;51.082;13.744;2023-02-01T09:24:26;99965.02;;;5.44;68.06
74403;BME280;62837;51.082;13.744;2023-02-01T09:26:57;99960.90;;;5.43;67.93
74403;BME280;62837;51.082;13.744;2023-02-01T09:29:28;99960.19;;;5.40;67.98
74403;BME280;62837;51.082;13.744;2023-02-01T09:31:59;99968.97;;;5.39;68.26
74403;BME280;62837;51.082;13.744;2023-02-01T09:34:33;99961.70;;;5.37;69.06
74403;BME280;62837;51.082;13.744;2023-02-01T09:37:04;99955.11;;;5.38;69.85
74403;BME280;62837;51.082;13.744;2023-02-01T09:39:35;99955.48;;;5.40;69.85
74403;BME280;62837;51.082;13.744;2023-02-01T09:42:18;99961.95;;;5.43;70.28
74403;BME280;62837;51.082;13.744;2023-02-01T09:45:06;99968.63;;;5.40;70.21
74403;BME280;62837;51.082;13.744;2023-02-01T09:47:46;99971.84;;;5.33;70.52
74403;BME280;62837;51.082;13.744;2023-02-01T09:50:19;99973.46;;;5.24;71.40
74403;BME280;62837;51.082;13.744;2023-02-01T09:52:55;99985.64;;;5.18;72.42
74403;BME280;62837;51.082;13.744;2023-02-01T09:55:32;99992.40;;;5.03;73.41
74403;BME280;62837;51.082;13.744;2023-02-01T09:58:11;99999.60;;;4.90;74.38
74403;BME280;62837;51.082;13.744;2023-02-01T10:00:50;100007.47;;;4.76;74.99
74403;BME280;62837;51.082;13.744;2023-02-01T10:03:23;100010.96;;;4.65;75.50
74403;BME280;62837;51.082;13.744;2023-02-01T10:06:10;100014.86;;;4.56;76.10
74403;BME280;62837;51.082;13.744;2023-02-01T10:08:57;100021.45;;;4.49;76.14
74403;BME280;62837;51.082;13.744;2023-02-01T10:11:45;100025.23;;;4.40;76.20
74403;BME280;62837;51.082;13.744;2023-02-01T10:14:37;100034.03;;;4.36;76.96
74403;BME280;62837;51.082;13.744;2023-02-01T10:17:22;100026.73;;;4.30;77.23
74403;BME280;62837;51.082;13.744;2023-02-01T10:20:04;100032.33;;;4.28;77.31
74403;BME280;62837;51.082;13.744;2023-02-01T10:22:42;100034.83;;;4.24;77.72
74403;BME280;62837;51.082;13.744;2023-02-01T10:25:39;100037.71;;;4.22;77.64
74403;BME280;62837;51.082;13.744;2023-02-01T10:28:16;100035.06;;;4.23;77.70
74403;BME280;62837;51.082;13.744;2023-02-01T10:30:54;100031.31;;;4.21;78.33
74403;BME280;62837;51.082;13.744;2023-02-01T10:33:30;100036.13;;;4.21;78.34
74403;BME280;62837;51.082;13.744;2023-02-01T10:36:10;100036.60;;;4.20;78.31
74403;BME280;62837;51.082;13.744;2023-02-01T10:38:42;100036.06;;;4.20;78.18
74403;BME280;62837;51.082;13.744;2023-02-01T10:41:15;100035.93;;;4.23;78.22
74403;BME280;62837;51.082;13.744;2023-02-01T10:43:49;100034.10;;;4.27;78.82
74403;BME280;62837;51.082;13.744;2023-02-01T10:46:23;100031.55;;;4.29;79.06
74403;BME280;62837;51.082;13.744;2023-02-01T10:48:57;100033.88;;;4.32;78.54
74403;BME280;62837;51.082;13.744;2023-02-01T10:51:34;100032.23;;;4.36;78.50
74403;BME280;62837;51.082;13.744;2023-02-01T10:54:16;100035.59;;;4.43;78.84
74403;BME280;62837;51.082;13.744;2023-02-01T10:56:50;100031.39;;;4.46;78.54
74403;BME280;62837;51.082;13.744;2023-02-01T10:59:27;100032.96;;;4.52;77.92
74403;BME280;62837;51.082;13.744;2023-02-01T11:02:05;100034.55;;;4.58;77.66
74403;BME280;62837;51.082;13.744;2023-02-01T11:04:43;100038.98;;;4.66;77.33
74403;BME280;62837;51.082;13.744;2023-02-01T11:07:19;100044.04;;;4.73;77.03
74403;BME280;62837;51.082;13.744;2023-02-01T11:09:55;100047.02;;;4.80;76.67
74403;BME280;62837;51.082;13.744;2023-02-01T11:12:33;100046.61;;;4.85;75.96
74403;BME280;62837;51.082;13.744;2023-02-01T11:15:18;100046.21;;;4.92;75.70
74403;BME280;62837;51.082;13.744;2023-02-01T11:17:51;100048.54;;;4.98;75.37
74403;BME280;62837;51.082;13.744;2023-02-01T11:20:37;100053.14;;;5.01;75.15
74403;BME280;62837;51.082;13.744;2023-02-01T11:23:16;100045.52;;;5.05;75.08
74403;BME280;62837;51.082;13.744;2023-02-01T11:25:52;100046.02;;;5.09;74.74
74403;BME280;62837;51.082;13.744;2023-02-01T11:28:26;100044.02;;;5.11;74.65
74403;BME280;62837;51.082;13.744;2023-02-01T11:31:01;100044.46;;;5.14;74.72
74403;BME280;62837;51.082;13.744;2023-02-01T11:33:35;100039.88;;;5.18;74.51
74403;BME280;62837;51.082;13.744;2023-02-01T11:36:10;100028.86;;;5.22;74.10
74403;BME280;62837;51.082;13.744;2023-02-01T11:38:51;100030.27;;;5.24;73.85
74403;BME280;62837;51.082;13.744;2023-02-01T11:41:25;100022.41;;;5.26;73.40
74403;BME280;62837;51.082;13.744;2023-02-01T11:43:59;100024.25;;;5.27;73.52
74403;BME280;62837;51.082;13.744;2023-02-01T11:46:32;100013.20;;;5.30;73.24
74403;BME280;62837;51.082;13.744;2023-02-01T11:49:13;100012.28;;;5.35;73.19
74403;BME280;62837;51.082;13.744;2023-02-01T11:51:57;100008.42;;;5.40;72.56
74403;BME280;62837;51.082;13.744;2023-02-01T11:54:45;100006.45;;;5.43;72.95
74403;BME280;62837;51.082;13.744;2023-02-01T11:57:34;99997.85;;;5.46;72.84
74403;BME280;62837;51.082;13.744;2023-02-01T12:00:26;100002.25;;;5.45;72.71
74403;BME280;62837;51.082;13.744;2023-02-01T12:03:10;99991.45;;;5.45;73.01
74403;BME280;62837;51.082;13.744;2023-02-01T12:05:52;99996.23;;;5.43;73.10
74403;BME280;62837;51.082;13.744;2023-02-01T12:08:49;99996.84;;;5.45;73.15
74403;BME280;62837;51.082;13.744;2023-02-01T12:11:35;99990.55;;;5.46;73.05
74403;BME280;62837;51.082;13.744;2023-02-01T12:14:25;99992.86;;;5.47;73.00
74403;BME280;62837;51.082;13.744;2023-02-01T12:17:20;99992.29;;;5.49;73.07
74403;BME280;62837;51.082;13.744;2023-02-01T12:20:06;99987.85;;;5.52;72.92
74403;BME280;62837;51.082;13.744;2023-02-01T12:22:50;99979.85;;;5.55;72.38
74403;BME280;62837;51.082;13.744;2023-02-01T12:25:34;99983.39;;;5.57;72.12
74403;BME280;62837;51.082;13.744;2023-02-01T12:28:34;99980.02;;;5.58;72.49
74403;BME280;62837;51.082;13.744;2023-02-01T12:34:32;99969.91;;;5.59;71.25
74403;BME280;62837;51.082;13.744;2023-02-01T12:37:14;99971.12;;;5.60;71.31
74403;BME280;62837;51.082;13.744;2023-02-01T12:39:53;99974.42;;;5.61;71.27
74403;BME280;62837;51.082;13.744;2023-02-01T12:42:33;99977.09;;;5.62;71.41
74403;BME280;62837;51.082;13.744;2023-02-01T12:45:13;99976.93;;;5.63;71.52
74403;BME280;62837;51.082;13.744;2023-02-01T12:47:51;99972.88;;;5.65;71.06
74403;BME280;62837;51.082;13.744;2023-02-01T12:50:28;99971.69;;;5.67;70.73
74403;BME280;62837;51.082;13.744;2023-02-01T12:53:09;99972.64;;;5.69;70.75
74403;BME280;62837;51.082;13.744;2023-02-01T12:55:45;99965.11;;;5.71;70.66
74403;BME280;62837;51.082;13.744;2023-02-01T12:58:23;99961.83;;;5.73;70.25
74403;BME280;62837;51.082;13.744;2023-02-01T13:01:00;99959.86;;;5.75;69.56
74403;BME280;62837;51.082;13.744;2023-02-01T13:03:38;99962.77;;;5.79;69.54
74403;BME280;62837;51.082;13.744;2023-02-01T13:06:15;99954.88;;;5.81;69.70
74403;BME280;62837;51.082;13.744;2023-02-01T13:08:54;99952.41;;;5.84;69.59
74403;BME280;62837;51.082;13.744;2023-02-01T13:11:29;99951.70;;;5.87;69.35
74403;BME280;62837;51.082;13.744;2023-02-01T13:14:05;99950.80;;;5.89;69.38
74403;BME280;62837;51.082;13.744;2023-02-01T13:16:41;99937.61;;;5.81;69.24
74403;BME280;62837;51.082;13.744;2023-02-01T13:19:18;99955.08;;;5.96;69.32
74403;BME280;62837;51.082;13.744;2023-02-01T13:21:54;99951.94;;;6.00;69.39
74403;BME280;62837;51.082;13.744;2023-02-01T13:24:33;99945.18;;;6.03;69.00
74403;BME280;62837;51.082;13.744;2023-02-01T13:27:08;99946.38;;;6.05;69.11
74403;BME280;62837;51.082;13.744;2023-02-01T13:29:44;99941.09;;;6.05;68.93
74403;BME280;62837;51.082;13.744;2023-02-01T13:35:49;99943.43;;;6.08;69.13
74403;BME280;62837;51.082;13.744;2023-02-01T13:38:43;99944.31;;;6.09;69.07
74403;BME280;62837;51.082;13.744;2023-02-01T13:41:27;99937.96;;;6.10;69.10
74403;BME280;62837;51.082;13.744;2023-02-01T13:44:01;99935.02;;;6.10;68.47
74403;BME280;62837;51.082;13.744;2023-02-01T13:46:40;99930.78;;;6.11;67.95
74403;BME280;62837;51.082;13.744;2023-02-01T13:49:20;99929.23;;;6.13;67.89
74403;BME280;62837;51.082;13.744;2023-02-01T13:51:53;99925.15;;;6.14;67.62
74403;BME280;62837;51.082;13.744;2023-02-01T13:54:30;99918.42;;;6.15;67.71